Time;durP1;ratioP1;P1;durP2;ratioP2;P2;SDS_P1;SDS_P2;PMS_P1;PMS_P2;Temp;Humidity;BMP_temperature;BMP_pressure;BME280_temperature;BME280_humidity;BME280_pressure;Samples;Min_cycle;Max_cycle;Signal;HPM_P1;HPM_P2
2021/12/20 00:00:00;;;;;;;10.30;4.68;;;18.20;60.00;;;;;;5002265;28;20776;-58
2021/12/20 00:02:26;;;;;;;8.43;4.03;;;18.20;60.00;;;;;;5002181;28;20038;-58
2021/12/20 00:04:52;;;;;;;7.97;4.10;;;18.20;59.90;;;;;;5002864;28;20030;-54
2021/12/20 00:07:19;;;;;;;8.70;4.15;;;18.10;59.70;;;;;;5004182;28;20143;-57
2021/12/20 00:09:44;;;;;;;6.95;3.88;;;18.20;59.80;;;;;;5004633;28;20533;-57
2021/12/20 00:12:10;;;;;;;11.60;3.75;;;18.10;59.70;;;;;;5002551;28;20048;-56
2021/12/20 00:14:35;;;;;;;8.40;3.72;;;18.10;59.70;;;;;;5002607;28;21406;-58
2021/12/20 00:17:01;;;;;;;11.20;3.63;;;18.20;59.70;;;;;;5001255;28;20026;-58
2021/12/20 00:19:26;;;;;;;8.57;3.65;;;18.20;59.60;;;;;;5001799;28;20493;-58
2021/12/20 00:21:52;;;;;;;10.05;4.00;;;18.20;59.50;;;;;;5002425;28;20034;-55
2021/12/20 00:24:19;;;;;;;7.20;3.20;;;18.10;59.40;;;;;;5002216;28;20042;-55
2021/12/20 00:26:44;;;;;;;5.75;3.10;;;18.10;59.50;;;;;;5002570;28;20501;-52
2021/12/20 00:29:10;;;;;;;9.30;3.72;;;18.10;59.40;;;;;;5002451;28;20041;-56
2021/12/20 00:31:35;;;;;;;8.10;3.53;;;18.10;59.40;;;;;;5001857;28;20568;-57
2021/12/20 00:34:01;;;;;;;6.43;2.75;;;18.10;60.00;;;;;;5002158;28;20111;-58
2021/12/20 00:36:29;;;;;;;5.93;3.30;;;18.10;59.30;;;;;;5000213;28;20504;-57
2021/12/20 00:41:39;;;;;;;6.90;3.30;;;18.10;59.10;;;;;;5001883;28;20156;-56
2021/12/20 00:44:04;;;;;;;6.82;2.75;;;18.20;59.20;;;;;;5002029;28;20146;-57
2021/12/20 00:46:30;;;;;;;5.75;2.45;;;18.10;59.10;;;;;;5000106;28;20033;-58
2021/12/20 00:48:56;;;;;;;7.10;2.55;;;18.10;59.10;;;;;;5004890;28;20061;-58
2021/12/20 00:51:21;;;;;;;5.43;2.17;;;18.10;59.00;;;;;;5003302;28;20050;-55
2021/12/20 00:53:47;;;;;;;4.55;2.35;;;18.10;59.00;;;;;;5001740;28;20022;-55
2021/12/20 00:56:12;;;;;;;6.80;2.95;;;18.10;59.00;;;;;;5001465;28;20037;-56
2021/12/20 00:58:38;;;;;;;4.97;2.00;;;18.10;58.90;;;;;;5015337;22;20049;-55
2021/12/20 01:01:03;;;;;;;6.30;2.88;;;18.20;58.90;;;;;;5015502;28;20400;-54
2021/12/20 01:03:30;;;;;;;5.88;2.95;;;18.10;58.80;;;;;;5017187;28;20057;-52
2021/12/20 01:05:56;;;;;;;5.72;2.58;;;18.10;58.70;;;;;;5000367;28;20764;-54
2021/12/20 01:08:23;;;;;;;4.07;2.55;;;18.10;58.70;;;;;;4998917;28;20089;-57
2021/12/20 01:10:52;;;;;;;6.30;2.80;;;18.10;58.80;;;;;;4999157;28;20048;-53
2021/12/20 01:13:20;;;;;;;6.28;2.22;;;18.10;58.80;;;;;;4998303;28;20121;-55
2021/12/20 01:15:49;;;;;;;4.70;1.92;;;18.10;58.70;;;;;;5005596;28;20061;-54
2021/12/20 01:18:15;;;;;;;6.30;2.40;;;18.10;58.70;;;;;;5003345;28;20029;-56
2021/12/20 01:20:43;;;;;;;5.47;2.75;;;18.10;58.70;;;;;;5003741;28;20401;-55
2021/12/20 01:23:09;;;;;;;5.60;2.47;;;18.10;58.70;;;;;;5005229;28;20087;-56
2021/12/20 01:25:35;;;;;;;4.45;1.98;;;18.10;58.70;;;;;;5004334;28;20030;-54
2021/12/20 01:28:00;;;;;;;4.45;2.15;;;18.10;58.70;;;;;;5004526;28;20517;-51
2021/12/20 01:30:26;;;;;;;4.93;2.20;;;18.10;58.70;;;;;;5003098;28;20062;-54
2021/12/20 01:32:52;;;;;;;3.88;1.85;;;18.10;58.70;;;;;;5004340;28;20030;-51
2021/12/20 01:35:18;;;;;;;4.05;1.83;;;18.10;58.70;;;;;;5003439;28;20128;-54
2021/12/20 01:37:43;;;;;;;6.63;2.45;;;18.10;58.70;;;;;;5003219;28;20038;-54
2021/12/20 01:40:10;;;;;;;3.75;2.05;;;18.00;58.60;;;;;;5004991;28;20413;-52
2021/12/20 01:42:36;;;;;;;6.55;2.10;;;18.00;58.60;;;;;;5005097;28;20060;-51
2021/12/20 01:45:08;;;;;;;4.47;1.75;;;18.00;58.60;;;;;;5003514;28;20072;-54
2021/12/20 01:47:37;;;;;;;4.93;1.70;;;18.00;58.60;;;;;;4987272;28;20030;-56
2021/12/20 01:50:10;;;;;;;3.33;1.60;;;18.00;58.50;;;;;;5004449;28;20026;-51
2021/12/20 01:52:43;;;;;;;7.88;2.15;;;18.00;58.60;;;;;;5000830;28;20099;-52
2021/12/20 01:55:17;;;;;;;3.50;1.60;;;18.00;58.50;;;;;;5003568;28;20029;-55
2021/12/20 01:57:42;;;;;;;5.53;1.60;;;18.00;58.40;;;;;;5003974;28;20072;-54
2021/12/20 02:00:13;;;;;;;4.13;1.40;;;18.00;58.40;;;;;;5004712;28;20445;-55
2021/12/20 02:02:40;;;;;;;4.63;1.50;;;18.00;58.30;;;;;;5003713;28;20034;-53
2021/12/20 02:05:17;;;;;;;3.67;1.77;;;18.00;58.30;;;;;;5004005;28;20037;-53
2021/12/20 02:10:23;;;;;;;4.63;2.05;;;18.00;58.30;;;;;;5003354;28;20556;-55
2021/12/20 02:12:48;;;;;;;3.05;1.52;;;18.00;58.30;;;;;;5001837;28;20034;-56
2021/12/20 02:15:13;;;;;;;3.75;1.73;;;18.00;58.40;;;;;;5003114;28;20046;-55
2021/12/20 02:17:40;;;;;;;3.30;1.67;;;18.00;58.40;;;;;;5004062;28;20049;-57
2021/12/20 02:20:05;;;;;;;6.18;1.70;;;17.90;58.30;;;;;;5003493;28;20026;-57
2021/12/20 02:22:31;;;;;;;3.42;1.58;;;17.90;58.30;;;;;;5004264;28;20037;-52
2021/12/20 02:24:56;;;;;;;2.75;1.70;;;17.90;58.30;;;;;;5003988;28;20080;-52
2021/12/20 02:27:23;;;;;;;3.28;1.33;;;17.90;58.40;;;;;;5003542;28;20596;-53
2021/12/20 02:30:09;;;;;;;3.63;1.60;;;17.90;58.30;;;;;;5002675;28;20026;-54
2021/12/20 02:38:23;;;;;;;2.50;1.17;;;17.90;58.40;;;;;;5008339;28;20125;-53
2021/12/20 02:41:01;;;;;;;4.97;2.15;;;17.90;58.40;;;;;;5004190;28;20466;-53
2021/12/20 02:43:28;;;;;;;3.75;1.42;;;17.80;58.30;;;;;;4995367;28;20030;-54
2021/12/20 02:45:58;;;;;;;2.88;1.40;;;17.80;58.40;;;;;;5003862;28;20145;-52
2021/12/20 02:48:24;;;;;;;4.68;1.30;;;17.80;58.40;;;;;;5003075;28;20038;-54
2021/12/20 02:50:53;;;;;;;4.43;1.65;;;17.80;58.40;;;;;;5004330;28;20092;-57
2021/12/20 02:53:18;;;;;;;3.55;1.50;;;17.80;58.40;;;;;;5004022;28;20524;-57
2021/12/20 02:55:44;;;;;;;4.93;1.85;;;17.80;58.40;;;;;;5004087;28;20037;-52
2021/12/20 02:58:09;;;;;;;2.75;1.30;;;17.80;58.40;;;;;;5003265;28;20044;-53
2021/12/20 03:00:35;;;;;;;5.45;1.83;;;17.80;58.40;;;;;;5003584;28;20099;-55
2021/12/20 03:03:00;;;;;;;3.03;1.40;;;17.80;58.50;;;;;;5003080;28;20030;-52
2021/12/20 03:05:26;;;;;;;2.90;1.20;;;17.70;58.40;;;;;;5004376;28;20037;-52
2021/12/20 03:07:52;;;;;;;3.35;1.40;;;17.70;58.30;;;;;;5003891;28;20513;-54
2021/12/20 03:10:19;;;;;;;3.75;1.48;;;17.70;58.40;;;;;;5003644;28;20050;-54
2021/12/20 03:12:45;;;;;;;4.00;1.20;;;17.70;58.40;;;;;;5003900;28;20108;-57
2021/12/20 03:15:16;;;;;;;3.17;1.13;;;17.70;58.40;;;;;;5003151;28;20068;-51
2021/12/20 03:17:42;;;;;;;2.58;1.40;;;17.70;58.40;;;;;;5001646;28;20030;-56
2021/12/20 03:20:08;;;;;;;4.45;1.40;;;17.70;58.30;;;;;;5002950;28;20056;-56
2021/12/20 03:22:33;;;;;;;2.95;1.15;;;17.70;58.40;;;;;;5003348;28;20033;-52
2021/12/20 03:24:59;;;;;;;2.00;1.10;;;17.60;58.40;;;;;;5003304;28;20069;-54
2021/12/20 03:27:24;;;;;;;2.40;1.13;;;17.60;58.30;;;;;;5003251;28;20077;-56
2021/12/20 03:29:50;;;;;;;3.70;1.48;;;17.60;58.30;;;;;;5002855;28;20037;-57
2021/12/20 03:32:15;;;;;;;3.78;1.17;;;17.60;58.30;;;;;;5001136;28;20076;-52
2021/12/20 03:34:41;;;;;;;3.35;1.45;;;17.60;58.40;;;;;;5001925;28;20025;-57
2021/12/20 03:37:06;;;;;;;2.17;1.05;;;17.60;58.40;;;;;;4995729;28;20030;-55
2021/12/20 03:39:32;;;;;;;4.22;1.40;;;17.60;58.40;;;;;;4993290;28;20436;-52
2021/12/20 03:41:58;;;;;;;4.28;1.00;;;17.60;58.30;;;;;;5001466;28;20025;-51
2021/12/20 03:44:23;;;;;;;4.25;1.30;;;17.60;58.30;;;;;;5002349;28;20034;-52
2021/12/20 03:46:49;;;;;;;2.05;1.13;;;17.60;58.20;;;;;;4972727;28;20091;-55
2021/12/20 03:49:14;;;;;;;2.88;1.40;;;17.60;58.20;;;;;;5010157;28;20034;-54
2021/12/20 03:51:40;;;;;;;3.53;1.13;;;17.70;58.20;;;;;;4996548;28;20485;-51
2021/12/20 03:54:05;;;;;;;3.17;1.15;;;17.70;58.10;;;;;;4999203;28;20048;-52
2021/12/20 03:56:31;;;;;;;2.30;1.33;;;17.70;58.00;;;;;;5001977;28;20026;-52
2021/12/20 03:58:57;;;;;;;3.92;1.25;;;17.70;57.80;;;;;;4990755;28;20492;-55
2021/12/20 04:01:22;;;;;;;3.83;1.73;;;17.80;57.80;;;;;;5007685;28;20038;-54
2021/12/20 04:03:49;;;;;;;4.13;1.30;;;17.80;57.50;;;;;;4997113;28;20022;-55
2021/12/20 04:06:15;;;;;;;4.22;1.88;;;17.90;57.30;;;;;;5003146;28;20485;-52
2021/12/20 04:08:40;;;;;;;3.40;1.50;;;18.00;57.20;;;;;;4989254;28;20034;-53
2021/12/20 04:11:06;;;;;;;2.80;1.10;;;18.00;57.00;;;;;;5001757;28;20040;-55
2021/12/20 04:13:31;;;;;;;3.47;1.02;;;18.00;56.80;;;;;;4999987;28;20025;-53
2021/12/20 04:15:57;;;;;;;3.15;1.13;;;18.00;56.70;;;;;;5002170;28;20529;-57
2021/12/20 04:18:24;;;;;;;2.33;1.08;;;18.10;56.70;;;;;;4999642;28;20909;-56
2021/12/20 04:20:49;;;;;;;4.05;1.45;;;18.10;56.70;;;;;;5002397;28;20299;-56
2021/12/20 04:23:15;;;;;;;2.83;1.33;;;18.10;56.60;;;;;;5000889;28;20551;-56
2021/12/20 04:25:40;;;;;;;2.80;1.10;;;18.10;56.50;;;;;;5002604;28;20092;-56
2021/12/20 04:28:06;;;;;;;2.97;1.10;;;18.10;56.50;;;;;;4976978;28;20417;-54
2021/12/20 04:30:32;;;;;;;2.40;1.20;;;18.20;56.50;;;;;;4998563;28;20045;-52
2021/12/20 04:32:57;;;;;;;2.70;1.20;;;18.20;56.50;;;;;;4997344;28;20029;-54
2021/12/20 04:35:23;;;;;;;3.70;1.38;;;18.20;56.40;;;;;;5000576;28;20034;-50
2021/12/20 04:37:50;;;;;;;3.47;1.40;;;18.20;56.30;;;;;;4999427;28;20029;-51
2021/12/20 04:40:20;;;;;;;4.05;1.95;;;18.20;56.30;;;;;;5001706;28;20065;-54
2021/12/20 04:42:47;;;;;;;3.40;1.50;;;18.20;56.20;;;;;;5000161;28;20037;-51
2021/12/20 04:45:13;;;;;;;3.72;1.30;;;18.20;56.10;;;;;;5002224;28;20033;-56
2021/12/20 04:47:38;;;;;;;1.92;1.08;;;18.20;56.10;;;;;;4999416;28;20030;-55
2021/12/20 04:50:04;;;;;;;2.97;1.17;;;18.30;56.10;;;;;;5004734;28;20120;-54
2021/12/20 04:52:30;;;;;;;3.13;1.17;;;18.30;56.00;;;;;;5004975;28;20125;-53
2021/12/20 04:54:55;;;;;;;5.07;1.17;;;18.30;56.60;;;;;;5003432;28;20483;-51
2021/12/20 04:57:21;;;;;;;3.58;1.38;;;18.30;55.90;;;;;;5003392;28;20487;-52
2021/12/20 04:59:46;;;;;;;2.15;1.10;;;18.30;55.80;;;;;;5004804;28;20068;-53
2021/12/20 05:02:12;;;;;;;3.83;1.20;;;18.30;55.80;;;;;;5003615;28;20574;-50
2021/12/20 05:04:37;;;;;;;3.22;1.20;;;18.30;55.70;;;;;;5005354;28;20061;-52
2021/12/20 05:07:03;;;;;;;4.07;1.20;;;18.30;55.70;;;;;;5001124;28;20049;-51
2021/12/20 05:09:35;;;;;;;2.70;1.20;;;18.30;55.70;;;;;;5004088;28;20085;-54
2021/12/20 05:12:10;;;;;;;3.33;1.20;;;18.30;55.60;;;;;;5004016;28;20034;-54
2021/12/20 05:14:36;;;;;;;3.37;1.33;;;18.30;55.60;;;;;;5004687;28;20409;-53
2021/12/20 05:17:01;;;;;;;4.03;1.33;;;18.30;55.50;;;;;;4998894;28;20034;-52
2021/12/20 05:19:27;;;;;;;3.03;1.40;;;18.30;55.50;;;;;;5004966;28;20103;-50
2021/12/20 05:21:52;;;;;;;4.63;1.23;;;18.30;55.40;;;;;;5004144;28;20036;-51
2021/12/20 05:24:18;;;;;;;3.80;1.23;;;18.30;55.30;;;;;;5004295;28;20065;-50
2021/12/20 05:26:43;;;;;;;5.05;1.25;;;18.30;55.30;;;;;;5002411;28;20084;-53
2021/12/20 05:29:09;;;;;;;3.20;1.15;;;18.30;55.30;;;;;;5003898;28;20030;-54
2021/12/20 05:31:34;;;;;;;3.22;1.30;;;18.30;55.20;;;;;;5002892;28;20030;-56
2021/12/20 05:34:00;;;;;;;3.70;1.33;;;18.40;55.20;;;;;;5005106;28;20022;-54
2021/12/20 05:36:26;;;;;;;4.78;1.27;;;18.40;55.20;;;;;;5006046;28;20022;-54
2021/12/20 05:38:51;;;;;;;3.92;1.45;;;18.30;55.10;;;;;;5000913;28;20378;-53
2021/12/20 05:41:17;;;;;;;3.88;1.25;;;18.30;55.10;;;;;;5004893;28;20030;-54
2021/12/20 05:43:42;;;;;;;3.20;1.25;;;18.30;55.10;;;;;;4998807;28;20030;-55
2021/12/20 05:46:08;;;;;;;4.45;1.30;;;18.30;55.10;;;;;;5005876;28;20018;-50
2021/12/20 05:48:33;;;;;;;2.35;1.17;;;18.30;55.00;;;;;;4998892;28;20041;-50
2021/12/20 05:50:59;;;;;;;4.80;1.27;;;18.30;55.00;;;;;;5004585;28;20326;-53
2021/12/20 05:53:24;;;;;;;2.83;1.25;;;18.30;54.90;;;;;;5000402;28;20061;-55
2021/12/20 05:55:50;;;;;;;5.15;1.23;;;18.30;55.00;;;;;;5004409;28;20030;-51
2021/12/20 05:58:15;;;;;;;2.58;1.10;;;18.30;54.90;;;;;;5000533;28;20058;-51
2021/12/20 06:00:41;;;;;;;5.10;1.40;;;18.30;54.90;;;;;;5002785;28;20042;-52
2021/12/20 06:03:06;;;;;;;2.60;1.15;;;18.30;54.90;;;;;;5001197;28;20069;-50
2021/12/20 06:05:32;;;;;;;4.65;1.50;;;18.30;54.80;;;;;;5004636;28;20029;-50
2021/12/20 06:07:58;;;;;;;2.28;1.20;;;18.30;54.90;;;;;;4997648;28;20030;-50
2021/12/20 06:10:23;;;;;;;3.63;1.25;;;18.30;55.00;;;;;;5000619;28;20029;-53
2021/12/20 06:12:49;;;;;;;4.00;1.50;;;18.30;55.10;;;;;;4991632;28;20524;-51
2021/12/20 06:15:14;;;;;;;4.22;1.48;;;18.20;55.10;;;;;;5003219;28;20037;-54
2021/12/20 06:17:40;;;;;;;5.10;1.55;;;18.20;55.20;;;;;;4998309;28;20389;-53
2021/12/20 06:20:08;;;;;;;3.95;1.50;;;18.20;55.30;;;;;;5000174;28;20088;-51
2021/12/20 06:22:34;;;;;;;3.95;1.23;;;18.20;55.30;;;;;;4989975;28;20034;-54
2021/12/20 06:25:00;;;;;;;6.72;1.58;;;18.20;55.40;;;;;;5002206;28;20084;-54
2021/12/20 06:27:25;;;;;;;3.70;1.17;;;18.20;55.60;;;;;;4999659;28;20517;-54
2021/12/20 06:29:51;;;;;;;4.85;1.67;;;18.20;55.70;;;;;;5003015;28;20061;-51
2021/12/20 06:32:16;;;;;;;6.03;1.58;;;18.10;55.70;;;;;;5004075;28;20041;-50
2021/12/20 06:34:42;;;;;;;5.18;1.42;;;18.10;55.80;;;;;;5004136;28;20026;-53
2021/12/20 06:37:08;;;;;;;5.45;1.40;;;18.10;55.80;;;;;;5003784;28;20037;-52
2021/12/20 06:39:33;;;;;;;6.28;1.10;;;18.10;55.90;;;;;;5004907;28;20408;-50
2021/12/20 06:41:59;;;;;;;5.20;1.40;;;18.10;55.90;;;;;;5003845;28;20033;-50
2021/12/20 06:44:24;;;;;;;5.57;1.30;;;18.10;56.30;;;;;;5002549;28;20034;-50
2021/12/20 06:46:50;;;;;;;6.22;1.70;;;18.10;56.30;;;;;;5004784;28;20736;-53
2021/12/20 06:49:16;;;;;;;7.97;1.70;;;18.00;56.30;;;;;;5003826;28;20536;-50
2021/12/20 06:51:43;;;;;;;7.20;1.60;;;18.00;56.40;;;;;;5004659;28;20025;-54
2021/12/20 06:54:10;;;;;;;4.25;1.67;;;18.10;56.50;;;;;;5002930;28;20246;-52
2021/12/20 06:56:35;;;;;;;7.78;1.60;;;18.10;56.60;;;;;;5002868;28;20034;-53
2021/12/20 06:59:01;;;;;;;5.32;1.63;;;18.10;56.50;;;;;;5004354;28;20584;-51
2021/12/20 07:01:26;;;;;;;5.90;1.60;;;18.10;56.60;;;;;;5019854;22;20056;-54
2021/12/20 07:03:52;;;;;;;5.35;1.50;;;18.00;56.50;;;;;;5017981;28;20025;-56
2021/12/20 07:06:17;;;;;;;5.57;1.77;;;18.00;56.50;;;;;;5001761;28;20042;-59
2021/12/20 07:08:43;;;;;;;6.38;1.52;;;18.00;56.50;;;;;;5001672;28;20032;-57
2021/12/20 07:11:09;;;;;;;5.18;1.63;;;18.10;56.50;;;;;;4999102;28;20520;-57
2021/12/20 07:13:35;;;;;;;6.88;1.75;;;18.10;56.50;;;;;;4994674;28;20708;-58
2021/12/20 07:16:00;;;;;;;4.30;1.73;;;18.10;56.40;;;;;;4983447;28;20031;-56
2021/12/20 07:18:26;;;;;;;4.53;1.80;;;18.00;56.30;;;;;;4984251;28;20034;-58
2021/12/20 07:20:51;;;;;;;4.25;1.83;;;18.10;56.20;;;;;;5002968;28;20101;-58
2021/12/20 07:23:17;;;;;;;5.43;1.80;;;18.10;56.00;;;;;;5003625;28;20401;-55
2021/12/20 07:25:42;;;;;;;8.68;1.70;;;18.10;55.80;;;;;;5003281;28;20128;-55
2021/12/20 07:28:08;;;;;;;7.82;2.30;;;18.10;55.40;;;;;;5003239;28;20730;-57
2021/12/20 07:30:34;;;;;;;8.10;2.00;;;18.10;55.10;;;;;;5003514;28;20026;-59
2021/12/20 07:32:59;;;;;;;7.60;2.17;;;18.10;55.20;;;;;;5001011;28;20034;-58
2021/12/20 07:35:25;;;;;;;8.27;2.17;;;18.00;55.10;;;;;;5002948;28;20398;-56
2021/12/20 07:37:52;;;;;;;10.23;2.58;;;18.00;55.30;;;;;;5002103;28;20034;-52
2021/12/20 07:40:18;;;;;;;14.90;7.15;;;18.00;55.50;;;;;;5005814;28;20033;-58
2021/12/20 07:42:43;;;;;;;17.58;7.93;;;18.00;56.50;;;;;;5004415;28;20072;-58
2021/12/20 07:45:09;;;;;;;14.20;7.47;;;17.90;56.50;;;;;;5002301;28;20045;-52
2021/12/20 07:47:34;;;;;;;16.25;8.18;;;18.00;57.00;;;;;;5000380;28;20558;-55
2021/12/20 07:50:00;;;;;;;20.88;8.05;;;17.90;57.20;;;;;;4998868;28;20124;-56
2021/12/20 07:52:25;;;;;;;16.35;7.50;;;17.90;57.00;;;;;;4998292;28;20536;-57
2021/12/20 07:54:51;;;;;;;17.65;7.95;;;17.90;57.90;;;;;;4988981;28;20030;-57
2021/12/20 07:57:16;;;;;;;17.38;7.55;;;17.90;57.40;;;;;;5002809;28;20145;-56
2021/12/20 07:59:42;;;;;;;18.48;6.57;;;17.90;57.30;;;;;;5001709;28;20037;-58
2021/12/20 08:02:08;;;;;;;14.10;5.90;;;17.90;57.50;;;;;;5002535;28;20045;-53
2021/12/20 08:04:33;;;;;;;17.13;6.30;;;17.80;57.70;;;;;;5000909;28;20029;-55
2021/12/20 08:06:59;;;;;;;13.98;6.47;;;17.80;57.90;;;;;;5001555;28;20032;-56
2021/12/20 08:09:24;;;;;;;16.50;6.10;;;17.80;58.00;;;;;;5001452;28;20026;-58
2021/12/20 08:11:50;;;;;;;14.63;5.40;;;17.80;58.10;;;;;;5002764;28;20022;-53
2021/12/20 08:14:15;;;;;;;12.90;5.68;;;17.80;58.80;;;;;;5002482;28;20021;-53
2021/12/20 08:16:41;;;;;;;12.18;5.38;;;17.80;58.30;;;;;;5002624;28;20022;-56
2021/12/20 08:19:07;;;;;;;16.95;5.15;;;17.80;58.40;;;;;;5001297;28;20028;-57
2021/12/20 08:21:32;;;;;;;11.80;4.72;;;17.80;58.50;;;;;;5003048;28;20517;-54
2021/12/20 08:23:58;;;;;;;10.52;4.75;;;17.80;58.50;;;;;;4995581;28;20440;-53
2021/12/20 08:26:23;;;;;;;8.50;3.92;;;17.80;58.50;;;;;;4998530;28;20140;-55
2021/12/20 08:28:49;;;;;;;11.55;4.68;;;17.80;58.40;;;;;;4996573;28;20026;-59
2021/12/20 08:31:14;;;;;;;14.65;4.32;;;17.80;58.30;;;;;;4998682;28;20462;-55
2021/12/20 08:33:40;;;;;;;17.27;4.82;;;17.80;58.30;;;;;;4992836;28;20871;-56
2021/12/20 08:36:09;;;;;;;14.30;4.55;;;17.80;58.20;;;;;;4998350;28;20033;-58
2021/12/20 08:38:34;;;;;;;15.98;4.00;;;17.80;58.10;;;;;;4999859;28;20456;-54
2021/12/20 08:41:00;;;;;;;10.35;3.88;;;17.80;58.10;;;;;;4998706;28;20038;-54
2021/12/20 08:43:27;;;;;;;6.55;3.38;;;17.80;58.00;;;;;;4999819;28;20259;-59
2021/12/20 08:45:52;;;;;;;14.10;4.00;;;17.80;57.90;;;;;;5000290;28;20076;-53
2021/12/20 08:48:18;;;;;;;9.07;4.18;;;17.90;57.90;;;;;;4998921;28;20540;-57
2021/12/20 08:50:43;;;;;;;8.18;3.50;;;17.90;57.90;;;;;;5001250;28;20268;-54
2021/12/20 08:53:10;;;;;;;9.43;3.33;;;17.90;57.80;;;;;;5000548;28;20046;-54
2021/12/20 08:55:36;;;;;;;8.02;3.50;;;17.80;57.70;;;;;;5002163;28;20040;-54
2021/12/20 08:58:02;;;;;;;8.82;3.40;;;17.80;57.50;;;;;;5000357;28;20408;-50
2021/12/20 09:00:29;;;;;;;9.60;3.22;;;17.90;57.50;;;;;;5001071;28;20038;-54
2021/12/20 09:02:55;;;;;;;7.88;2.80;;;17.90;57.60;;;;;;5001717;28;20056;-57
2021/12/20 09:05:21;;;;;;;8.05;3.33;;;17.80;57.50;;;;;;5000022;28;20042;-57
2021/12/20 09:07:46;;;;;;;7.68;2.92;;;17.80;57.40;;;;;;5000152;28;20706;-55
2021/12/20 09:10:12;;;;;;;6.63;2.95;;;17.80;57.40;;;;;;5000878;28;20408;-55
2021/12/20 09:12:38;;;;;;;5.65;2.60;;;17.80;57.30;;;;;;5001451;28;20030;-52
2021/12/20 09:15:05;;;;;;;9.63;2.90;;;17.80;57.20;;;;;;5001824;28;20034;-55
2021/12/20 09:17:30;;;;;;;4.53;2.35;;;17.80;57.20;;;;;;5000828;28;20084;-58
2021/12/20 09:19:56;;;;;;;6.60;2.50;;;17.80;57.10;;;;;;5001277;28;20038;-59
2021/12/20 09:22:26;;;;;;;5.82;2.45;;;17.80;57.10;;;;;;5001930;28;20041;-58
2021/12/20 09:24:52;;;;;;;7.72;2.20;;;17.80;56.90;;;;;;5001333;28;20030;-59
2021/12/20 09:27:18;;;;;;;5.57;2.42;;;17.80;56.90;;;;;;5000286;28;20061;-59
2021/12/20 09:29:43;;;;;;;6.05;2.88;;;17.80;56.80;;;;;;5000258;28;20038;-57
2021/12/20 09:32:09;;;;;;;5.68;2.30;;;17.80;56.70;;;;;;5001721;28;20033;-53
2021/12/20 09:34:34;;;;;;;5.22;2.10;;;17.90;56.70;;;;;;5002945;28;20164;-54
2021/12/20 09:37:04;;;;;;;5.38;2.30;;;17.80;56.60;;;;;;5004812;28;20041;-59
2021/12/20 09:39:30;;;;;;;6.13;2.40;;;17.80;56.50;;;;;;4999344;28;20109;-56
2021/12/20 09:42:02;;;;;;;6.60;2.40;;;17.80;56.40;;;;;;5000862;28;20497;-55
2021/12/20 09:44:28;;;;;;;5.55;3.03;;;17.80;56.40;;;;;;5004683;28;20029;-59
2021/12/20 09:46:58;;;;;;;5.38;2.53;;;17.90;56.40;;;;;;5005274;28;20033;-57
2021/12/20 09:49:23;;;;;;;6.50;2.10;;;17.80;56.20;;;;;;5004964;28;20037;-56
2021/12/20 09:51:49;;;;;;;5.47;2.47;;;17.90;56.20;;;;;;5003671;28;20036;-59
2021/12/20 09:54:14;;;;;;;6.38;2.45;;;17.90;56.20;;;;;;4987408;28;20026;-57
2021/12/20 09:56:40;;;;;;;4.53;2.25;;;17.90;56.20;;;;;;5005103;28;20058;-54
2021/12/20 09:59:05;;;;;;;4.15;2.15;;;17.90;56.10;;;;;;5004174;28;20093;-57
2021/12/20 10:01:31;;;;;;;4.72;1.98;;;17.90;56.10;;;;;;5003678;28;20560;-54
2021/12/20 10:03:57;;;;;;;5.38;2.13;;;17.80;56.10;;;;;;5003718;28;20132;-56
2021/12/20 10:06:22;;;;;;;4.88;2.22;;;17.90;56.40;;;;;;5003863;28;20026;-56
2021/12/20 10:08:52;;;;;;;5.47;2.05;;;17.90;56.50;;;;;;5004919;28;20026;-55
2021/12/20 10:11:19;;;;;;;3.35;1.65;;;17.90;56.70;;;;;;5002449;28;20037;-56
2021/12/20 10:13:44;;;;;;;4.40;1.92;;;17.90;56.80;;;;;;5003664;28;20034;-57
2021/12/20 10:16:21;;;;;;;5.60;1.95;;;17.90;56.90;;;;;;5005125;28;20022;-54
2021/12/20 10:18:47;;;;;;;5.53;1.92;;;17.90;57.00;;;;;;5004319;28;20084;-54
2021/12/20 10:21:13;;;;;;;5.45;1.90;;;17.80;57.10;;;;;;5001852;28;20037;-58
2021/12/20 10:23:40;;;;;;;2.80;1.65;;;17.90;57.20;;;;;;5002908;28;20439;-57
2021/12/20 10:26:15;;;;;;;4.28;2.00;;;17.90;57.20;;;;;;5002810;28;20026;-55
2021/12/20 10:28:41;;;;;;;3.72;1.60;;;17.90;57.30;;;;;;5004555;28;20034;-59
2021/12/20 10:31:15;;;;;;;3.20;1.63;;;17.90;57.30;;;;;;5001753;28;20038;-57
2021/12/20 10:33:41;;;;;;;5.53;1.83;;;17.90;57.30;;;;;;5005022;28;20232;-55
2021/12/20 10:36:08;;;;;;;5.78;1.85;;;17.90;57.40;;;;;;5003646;28;20030;-53
2021/12/20 10:38:38;;;;;;;2.95;1.40;;;17.80;57.40;;;;;;5004325;28;20816;-54
2021/12/20 10:41:19;;;;;;;4.32;1.73;;;17.90;57.60;;;;;;5005438;28;20030;-54
2021/12/20 10:43:50;;;;;;;4.53;2.08;;;17.90;57.60;;;;;;5004097;28;20692;-58
2021/12/20 10:46:17;;;;;;;3.33;1.70;;;17.80;57.60;;;;;;5004587;28;20045;-55
2021/12/20 10:48:48;;;;;;;3.58;2.00;;;17.90;57.50;;;;;;5003784;28;20395;-59
2021/12/20 10:51:23;;;;;;;3.95;1.83;;;17.90;57.50;;;;;;5004363;28;20108;-55
2021/12/20 10:53:57;;;;;;;4.13;2.00;;;17.90;57.50;;;;;;5004122;28;20030;-55
2021/12/20 10:56:22;;;;;;;2.53;1.58;;;17.90;57.40;;;;;;5004136;28;20115;-57
2021/12/20 10:58:48;;;;;;;3.83;1.80;;;17.80;57.30;;;;;;5003395;28;20060;-55
2021/12/20 11:01:41;;;;;;;3.63;1.85;;;17.90;57.30;;;;;;5004245;28;20113;-52
2021/12/20 11:04:08;;;;;;;5.43;1.92;;;17.90;57.20;;;;;;5004180;28;20120;-57
2021/12/20 11:09:05;;;;;;;3.30;1.42;;;17.90;57.10;;;;;;5003261;28;20034;-58
2021/12/20 11:11:33;;;;;;;3.63;1.75;;;17.90;57.00;;;;;;4986321;28;20113;-58
2021/12/20 11:13:59;;;;;;;4.43;1.50;;;17.90;56.90;;;;;;5003722;28;20029;-54
2021/12/20 11:16:35;;;;;;;2.10;1.33;;;17.90;56.80;;;;;;5004004;28;20493;-58
2021/12/20 11:19:06;;;;;;;4.18;1.38;;;17.90;56.70;;;;;;5003407;28;20645;-53
2021/12/20 11:21:32;;;;;;;3.67;1.38;;;17.90;56.60;;;;;;5003838;28;20030;-55
2021/12/20 11:24:01;;;;;;;1.85;1.30;;;17.90;56.60;;;;;;5003906;28;20104;-54
2021/12/20 11:26:29;;;;;;;3.15;1.65;;;17.90;56.50;;;;;;5003453;28;20026;-56
2021/12/20 11:28:55;;;;;;;5.93;1.50;;;17.90;56.50;;;;;;5003471;28;20113;-54
2021/12/20 11:31:20;;;;;;;2.60;1.42;;;17.90;56.40;;;;;;5003099;28;20169;-57
2021/12/20 11:33:46;;;;;;;3.95;1.50;;;17.90;56.40;;;;;;5003636;28;20064;-52
2021/12/20 11:36:12;;;;;;;3.00;1.48;;;17.90;56.40;;;;;;5004342;28;20022;-53
2021/12/20 11:38:38;;;;;;;4.40;1.40;;;17.80;56.30;;;;;;5002265;28;20029;-52
2021/12/20 11:41:04;;;;;;;4.10;1.52;;;17.80;56.40;;;;;;5003182;28;20026;-52
2021/12/20 11:43:30;;;;;;;2.28;1.30;;;17.80;56.40;;;;;;5003280;28;20089;-56
2021/12/20 11:45:56;;;;;;;3.50;1.45;;;17.80;56.40;;;;;;5003477;28;20048;-54
2021/12/20 11:48:22;;;;;;;2.25;1.17;;;17.80;56.50;;;;;;5001336;28;20529;-57
2021/12/20 11:50:51;;;;;;;3.85;1.50;;;17.80;56.70;;;;;;5002829;28;20034;-51
2021/12/20 11:53:17;;;;;;;2.72;1.30;;;17.80;56.90;;;;;;5002281;28;20033;-55
2021/12/20 11:55:47;;;;;;;2.28;1.17;;;17.80;57.10;;;;;;5004146;28;20034;-61
2021/12/20 11:58:17;;;;;;;2.63;1.30;;;17.80;57.30;;;;;;4997451;28;20726;-61
2021/12/20 12:00:50;;;;;;;4.18;1.60;;;17.80;57.50;;;;;;5014132;28;20081;-54
2021/12/20 12:03:24;;;;;;;3.92;1.30;;;17.70;57.60;;;;;;5002748;28;20025;-49
2021/12/20 12:05:50;;;;;;;4.97;1.50;;;17.80;57.90;;;;;;5002031;28;20397;-51
2021/12/20 12:08:37;;;;;;;2.70;1.45;;;17.80;57.90;;;;;;5001862;28;20037;-55
2021/12/20 12:11:09;;;;;;;4.55;1.70;;;17.80;57.90;;;;;;4987366;28;20087;-56
2021/12/20 12:13:47;;;;;;;2.60;1.35;;;17.70;58.00;;;;;;5000306;28;20030;-52
2021/12/20 12:16:27;;;;;;;2.03;1.20;;;17.70;58.10;;;;;;5002780;28;20030;-53
2021/12/20 12:18:53;;;;;;;3.30;1.50;;;17.70;58.20;;;;;;5001613;28;20026;-48
2021/12/20 12:21:31;;;;;;;2.40;1.35;;;17.70;58.20;;;;;;5003300;28;20038;-51
2021/12/20 12:23:57;;;;;;;3.45;1.30;;;17.70;58.30;;;;;;5001574;28;20054;-55
2021/12/20 12:26:33;;;;;;;3.22;1.20;;;17.70;58.30;;;;;;5001277;28;20062;-51
2021/12/20 12:28:59;;;;;;;3.78;1.35;;;17.70;58.40;;;;;;5002196;28;20029;-51
2021/12/20 12:31:25;;;;;;;3.65;1.40;;;17.70;58.40;;;;;;5001482;28;20465;-54
2021/12/20 12:34:09;;;;;;;5.15;1.30;;;17.70;58.40;;;;;;5001438;28;20094;-57
2021/12/20 12:36:40;;;;;;;3.03;1.00;;;17.70;58.50;;;;;;4992716;28;20033;-55
2021/12/20 12:39:10;;;;;;;5.00;1.60;;;17.70;58.30;;;;;;5002146;28;20038;-52
2021/12/20 12:41:47;;;;;;;3.65;1.35;;;17.70;58.30;;;;;;5002596;28;20030;-58
2021/12/20 12:44:24;;;;;;;3.05;1.42;;;17.70;58.40;;;;;;5001843;28;20210;-53
2021/12/20 12:46:54;;;;;;;3.50;1.08;;;17.70;58.30;;;;;;5000855;28;20033;-60
2021/12/20 12:49:22;;;;;;;1.98;1.10;;;17.70;58.10;;;;;;5001968;28;20167;-58
2021/12/20 12:51:52;;;;;;;1.73;1.00;;;17.70;58.10;;;;;;5000336;28;20033;-57
2021/12/20 12:54:33;;;;;;;2.05;1.08;;;17.70;58.10;;;;;;5001473;28;20030;-58
2021/12/20 12:57:24;;;;;;;3.10;0.98;;;17.70;58.10;;;;;;5002631;28;20127;-54